createdAt,value
2022-11-12T00:09:24.370Z,2.68
2022-11-12T00:19:00.442Z,2.53
2022-11-12T00:28:38.301Z,2.48
2022-11-12T00:38:13.446Z,2.27
2022-11-12T00:47:50.195Z,2.42
2022-11-12T00:57:26.541Z,2.11
2022-11-12T01:07:02.941Z,2.04
2022-11-12T01:16:39.546Z,1.95
2022-11-12T01:26:16.605Z,1.89
2022-11-12T01:35:53.275Z,1.76
2022-11-12T01:45:29.804Z,1.8
2022-11-12T01:55:06.741Z,1.9
2022-11-12T02:04:43.890Z,1.8
2022-11-12T02:14:20.219Z,1.52
2022-11-12T02:23:56.741Z,1.51
2022-11-12T02:33:33.153Z,1.51
2022-11-12T02:43:09.728Z,1.91
2022-11-12T02:52:46.885Z,2.5
2022-11-12T03:02:24.171Z,1.88
2022-11-12T03:12:00.159Z,1.55
2022-11-12T03:21:36.252Z,1.28
2022-11-12T03:31:12.393Z,1.15
2022-11-12T03:40:49.057Z,0.9
2022-11-12T03:50:25.085Z,1.06
2022-11-12T04:00:01.943Z,0.85
2022-11-12T04:09:38.740Z,0.77
2022-11-12T04:19:15.088Z,0.9
2022-11-12T04:28:51.744Z,1.32
2022-11-12T04:38:28.749Z,0.82
2022-11-12T04:48:04.704Z,0.63
2022-11-12T04:57:41.129Z,0.43
2022-11-12T05:07:17.232Z,0.34
2022-11-12T05:16:53.856Z,0.29
2022-11-12T05:26:29.616Z,0.03
2022-11-12T05:36:05.985Z,0.53
2022-11-12T05:45:43.023Z,1.03
2022-11-12T05:55:20.256Z,0.49
2022-11-12T06:04:56.847Z,0.64
2022-11-12T06:14:33.338Z,0.21
2022-11-12T06:24:08.709Z,-0.05
2022-11-12T06:33:45.867Z,0.43
2022-11-12T06:43:22.231Z,0.13
2022-11-12T06:52:58.561Z,0.01
2022-11-12T07:02:35.002Z,0.05
2022-11-12T07:12:12.305Z,0.41
2022-11-12T07:21:49.393Z,0.75
2022-11-12T07:31:26.973Z,1.16
2022-11-12T07:41:04.217Z,1.63
2022-11-12T07:50:42.140Z,2.19
2022-11-12T08:00:19.915Z,2.74
2022-11-12T08:09:57.737Z,3.32
2022-11-12T08:19:35.552Z,3.8
2022-11-12T08:29:13.390Z,4.15
2022-11-12T08:38:51.119Z,4.68
2022-11-12T08:48:29.181Z,5.16
2022-11-12T08:58:06.332Z,5.58
2022-11-12T09:07:49.766Z,6
2022-11-12T09:17:21.709Z,6.24
2022-11-12T09:27:00.286Z,6.78
2022-11-12T09:36:39.876Z,7.24
2022-11-12T09:46:29.689Z,7.36
2022-11-12T09:55:54.602Z,7.76
2022-11-12T10:05:32.789Z,8.35
2022-11-12T10:15:11.061Z,9.16
2022-11-12T10:24:50.701Z,9.82
2022-11-12T10:34:29.593Z,9.95
2022-11-12T10:44:08.341Z,10.54
2022-11-12T10:53:47.093Z,11.41
2022-11-12T11:03:25.937Z,11.6
2022-11-12T11:13:09.051Z,12.21
2022-11-12T11:22:47.579Z,13.05
2022-11-12T11:32:26.246Z,13.48
2022-11-12T11:42:02.593Z,13.55
2022-11-12T11:51:38.662Z,13.58
2022-11-12T12:01:15.459Z,13.69
2022-11-12T12:11:08.859Z,13.26
2022-11-12T12:20:28.557Z,13.05
2022-11-12T12:30:05.487Z,13.14
2022-11-12T12:39:47.608Z,13.57
2022-11-12T12:49:29.226Z,13.86
2022-11-12T12:59:06.759Z,13.89
2022-11-12T13:08:40.661Z,13.55
2022-11-12T13:18:17.247Z,13.48
2022-11-12T13:27:51.940Z,13.64
2022-11-12T13:37:30.033Z,13.63
2022-11-12T13:47:06.373Z,13.2
2022-11-12T13:56:42.713Z,12.93
2022-11-12T14:06:19.021Z,12.69
2022-11-12T14:15:54.795Z,12.08
2022-11-12T14:25:30.516Z,11.75
2022-11-12T14:35:06.124Z,11.43
2022-11-12T14:44:41.585Z,11.09
2022-11-12T14:54:18.019Z,10.49
2022-11-12T15:03:52.244Z,9.99
2022-11-12T15:13:28.018Z,9.54
2022-11-12T15:23:02.444Z,8.78
2022-11-12T15:32:38.455Z,8.32
2022-11-12T15:42:13.815Z,7.75
2022-11-12T15:51:50.058Z,7.48
2022-11-12T16:01:26.595Z,7.06
2022-11-12T16:11:03.092Z,6.92
2022-11-12T16:20:39.531Z,6.77
2022-11-12T16:30:15.730Z,6.44
2022-11-12T16:39:51.719Z,6.1
2022-11-12T16:49:28.145Z,5.73
2022-11-12T16:59:04.453Z,5.49
2022-11-12T17:08:40.761Z,5.43
2022-11-12T17:18:17.332Z,5.23
2022-11-12T17:27:54.033Z,5.12
2022-11-12T17:37:30.550Z,5.02
2022-11-12T17:47:06.966Z,4.79
2022-11-12T17:56:43.393Z,4.59
2022-11-12T18:06:20.156Z,4.41
2022-11-12T18:15:56.569Z,4.21
2022-11-12T18:25:32.858Z,4.05
2022-11-12T18:35:08.877Z,3.75
2022-11-12T18:44:44.711Z,3.62
2022-11-12T18:54:20.977Z,3.41
2022-11-12T19:03:57.094Z,3.29
2022-11-12T19:13:33.137Z,3.13
2022-11-12T19:32:46.124Z,2.8
2022-11-12T19:42:22.943Z,2.71
2022-11-12T19:51:59.521Z,2.47
2022-11-12T20:01:35.972Z,2.51
2022-11-12T20:11:12.538Z,2.13
2022-11-12T20:20:49.030Z,2.09
2022-11-12T20:30:25.459Z,1.97
2022-11-12T20:40:02.193Z,1.74
2022-11-12T20:49:38.351Z,1.53
2022-11-12T20:59:14.919Z,1.7
2022-11-12T21:08:51.211Z,1.67
2022-11-12T21:18:28.470Z,1.55
2022-11-12T21:28:04.651Z,1.54
2022-11-12T21:37:41.139Z,1.32
2022-11-12T21:47:17.326Z,1.18
2022-11-12T21:56:53.586Z,1.17
2022-11-12T22:06:29.792Z,0.94
2022-11-12T22:16:06.435Z,1.04
2022-11-12T22:25:43.227Z,0.85
2022-11-12T22:35:19.674Z,0.76
2022-11-12T22:44:55.987Z,0.67
2022-11-12T22:54:32.660Z,0.66
2022-11-12T23:04:09.624Z,0.96
2022-11-12T23:13:46.486Z,0.83
2022-11-12T23:23:23.043Z,0.83
2022-11-12T23:32:59.517Z,0.94
2022-11-12T23:42:36.278Z,1.23
2022-11-12T23:52:13.530Z,1.59
